Machigasta, Argentina
Current Conditions -  °F | °C
As of 11:00 PM on Monday 24 Nov 2014 (Local Time) from SANT Reporting Station
Thunderstorm Thunderstorm  
Wind Chill: 73°   Ceiling: 5000
Heat Index: 73°   Visibility: 2.5mi
Dew Point: 70°   Wind: 23mph
Humidity: 88%   Direction: 90°E
Pressure: 29.83"   Gusts: NA
Location:  28.55°S, 66.8°W
Report Text: SANT 250200Z 09020KT 4000 TSRA SCT035BKN050CB 23/21 Q1010
Loading
Personal Weather Stations






























Interactive Weather Map New forecast layout! Learn more

10-Day Weather Forecast

Advertisements
Track Severe Weather on mobile